Pagina principale
METAR-TAF:

METAR-TAF

Aeroporti :

Aeroporto di Exeter

Exeter, Inghilterra

latitudine: 50-44N, longitudine: 003-25W, altezza: 30 m

Osservazione

Il bollettino è stato emesso 36 minuti fa, alle 12:50 UTC
Vento 14 kt da est/sud-est
Temperature 25°C
Umidità 61%
Pressione 1015 hPa
Visibilità 10 km o più
nessuna nube inferiore a 1500 m e nessun cumulonembo

METAR: EGTE 231250Z 12014KT CAVOK 25/17 Q1015

Ora: 14:26 (13:26 UTC)

Previsione

Il bollettino è stato emesso 2 ore e 25 minuti fa, alle 11:01 UTC
Previsione valida dal 23 alle 12 UTC al 23 alle 21 UTC
Vento 9 kt da sud-est
Visibilità 10 km o più
Poco nuvoloso ad un'altezza di 4500 ft
Probabilità 30% :
Temporaneamente
dal 23 alle 14 UTC al 23 alle 18 UTC
Visibilità: 6000 m
rovesci di pioggia, temporale, pioggia

TAF: EGTE 231101Z 2312/2321 13009KT 9999 FEW045 PROB30 TEMPO 2314/2318 6000 SHRA TSRA

Osservazioni e previsioni meteorologiche di più di 4000 aeroporti (messaggi METAR e TAF).

Le stazioni disponibili sono rappresentate dai dischi gialli e rossi sulla carta.

Puntare il mouse per vedere il nome della stazione.

Clicca sopra per visualizzare le osservazioni e previsioni meteorologiche.

Per cambiare la mappa : fare clic sui pulsanti verdi con una croce nera per ingrandire, il pulsante verde con un trattino per diminuire, o sulla freccia verde per le mappe adiacenti.


METAR-TAF: